Date,TemperatureHighF,TemperatureAvgF,TemperatureLowF,DewpointHighF,DewpointAvgF,DewpointLowF,HumidityHigh,HumidityAvg,HumidityLow,PressureMaxIn,PressureMinIn,WindSpeedMaxMPH,WindSpeedAvgMPH,GustSpeedMaxMPH,PrecipitationSumIn
2013-1-8,68.2,63.6,61.3,29.1,21.4,-12.6,28,21,10,30.03,29.96,4,1,9,0.00
2013-1-9,70.0,66.3,61.7,51.8,37.4,23.9,55,35,23,30.08,29.99,8,2,17,0.00
2013-1-10,75.4,68.7,63.7,53.7,45.1,33.8,58,44,22,30.06,29.81,15,4,24,0.28
2013-1-11,80.6,71.4,64.0,48.7,39.0,17.0,49,35,10,29.98,29.20,13,4,22,0.00
2013-1-12,80.1,72.8,69.6,52.5,42.4,16.9,52,37,11,29.94,29.80,14,6,22,0.01
2013-1-13,77.7,72.1,61.2,51.1,44.7,34.3,48,38,21,29.87,29.76,14,6,24,0.15
2013-1-14,61.2,53.2,44.2,38.5,30.8,22.6,44,42,36,29.96,29.85,8,2,17,0.07
2013-1-15,62.1,53.6,44.6,43.9,33.5,23.5,53,46,41,29.92,29.77,6,1,10,0.19
2013-1-16,55.2,48.1,42.3,35.9,23.8,16.3,49,39,28,29.91,29.78,8,2,15,0.06
2013-1-17,53.1,44.0,37.6,19.1,-1.5,-14.0,39,17,10,30.22,29.90,13,4,27,0.07
2013-1-18,60.6,46.0,36.1,3.8,-4.4,-12.7,23,12,10,30.37,30.21,7,2,11,0.00
2013-1-19,68.9,50.1,35.6,10.1,2.6,-7.0,27,15,10,30.24,30.08,6,1,10,0.00
2013-1-20,69.4,51.1,36.5,21.4,5.6,-5.1,36,17,10,30.12,29.96,4,1,10,0.00
2013-1-21,68.7,52.6,37.4,18.1,4.4,-6.7,31,15,10,30.06,29.97,8,1,12,0.00
2013-1-22,63.0,48.5,38.1,5.4,-5.3,-13.6,14,10,10,30.21,30.05,6,1,11,0.00
2013-1-23,66.7,43.1,35.4,11.0,0.3,-6.5,27,17,10,30.25,30.17,6,0,9,0.00
2013-1-24,75.4,56.7,40.5,20.4,11.0,4.1,30,18,10,30.19,30.06,5,1,8,0.00
2013-1-25,75.7,59.9,45.3,31.0,16.7,5.9,39,21,10,30.12,29.99,10,2,14,0.01
2013-1-26,74.5,64.2,49.8,39.1,21.9,8.5,43,23,10,30.11,30.02,7,1,11,0.00
2013-1-27,75.2,60.4,48.2,34.7,23.5,10.1,42,27,10,30.16,30.07,11,2,15,0.00
2013-1-28,79.0,65.9,52.9,45.7,29.1,12.5,49,29,10,30.12,29.98,11,3,19,0.01
2013-1-29,77.9,71.9,68.9,51.8,44.0,26.6,49,38,15,29.98,29.69,15,7,26,0.13
2013-1-30,74.7,62.6,44.1,53.0,26.8,-9.0,50,29,10,29.97,29.54,24,6,44,1.51
2013-1-31,61.3,47.4,33.6,6.1,-4.4,-13.7,24,11,10,30.17,29.97,8,1,13,0.00
2013-2-1,62.2,47.4,37.9,10.5,-2.4,-13.3,25,13,10,30.25,30.14,8,1,14,0.00
2013-2-2,68.0,49.9,32.2,20.3,-2.0,-18.2,29,12,10,30.21,30.03,10,2,14,0.00
2013-2-3,70.7,55.6,41.5,24.7,9.6,-6.7,36,18,10,30.11,29.96,7,1,13,0.00
2013-2-4,65.7,52.6,40.1,25.3,8.1,-3.6,31,18,10,29.97,29.83,5,0,8,0.09
2013-2-5,70.3,61.0,53.1,39.2,27.7,11.0,43,30,11,29.88,29.78,10,1,14,0.34
2013-2-6,75.4,62.0,52.9,41.4,25.6,8.2,47,29,10,29.99,29.85,10,2,15,0.02
2013-2-7,79.0,65.0,53.1,42.1,25.4,6.5,47,27,10,29.85,29.64,11,2,18,1.49
2013-2-8,75.0,61.0,50.4,38.4,18.7,2.3,43,23,10,30.00,29.78,8,1,13,0.00
2013-2-9,67.5,56.2,45.9,28.4,8.0,-4.7,35,16,10,30.09,29.95,8,2,11,0.00
2013-2-10,72.9,67.1,55.8,49.7,33.3,15.4,45,30,12,29.95,29.80,19,7,32,0.15
2013-2-11,71.6,63.6,57.9,50.7,37.9,19.6,51,39,19,29.96,29.83,9,2,19,0.40
2013-2-12,71.2,63.0,56.7,55.2,43.0,34.8,58,48,43,29.89,29.59,9,2,15,0.31
2013-2-13,69.3,53.8,42.4,51.4,22.5,-17.2,53,31,10,29.92,29.60,9,1,14,0.26
2013-2-14,77.0,48.7,39.4,18.2,4.7,-7.9,35,19,10,30.01,29.88,4,1,8,0.01
2013-2-15,68.7,51.0,35.4,16.1,3.5,-7.9,34,16,10,30.02,29.88,8,1,12,0.00
2013-2-16,56.5,47.8,32.4,0.6,-6.1,-18.2,10,10,10,30.14,29.94,14,3,23,0.00
2013-2-17,45.7,40.2,27.7,-7.7,-11.7,-21.7,14,10,10,30.25,30.14,6,2,124,0.00
2013-2-18,63.5,49.0,45.7,7.8,-5.1,-7.7,12,10,10,30.23,29.85,15,4,24,0.06
2013-2-19,69.1,60.1,18.0,35.4,13.3,-29.3,39,18,10,30.06,29.80,14,3,26,0.43
2013-2-20,62.2,47.9,38.8,5.0,-6.0,-13.0,10,10,10,30.12,29.91,5,1,10,0.00
2013-2-21,68.4,58.3,39.6,40.8,9.3,-12.6,37,15,10,29.91,29.69,14,4,23,0.00
2013-2-22,118.2,66.4,60.8,63.4,29.5,7.0,64,29,10,29.82,29.69,11,2,100,1.49
2013-2-23,61.3,58.8,55.9,38.1,33.2,25.3,44,38,26,29.79,29.59,7,2,12,0.76
2013-2-24,72.7,60.3,47.7,32.9,18.6,4.5,43,23,10,29.83,29.63,8,1,13,0.33
2013-2-25,69.6,63.6,59.4,50.2,38.2,26.6,50,40,22,29.69,29.33,16,3,24,2.89
2013-2-26,66.4,57.3,49.5,42.9,4.3,-4.8,45,12,10,29.77,29.36,72,2,72,0.01
2013-2-27,69.6,54.9,45.7,16.8,6.2,-3.3,25,15,10,29.87,29.75,11,1,17,0.00
2013-2-28,62.6,51.5,39.9,15.3,-1.1,-8.6,26,11,10,29.94,29.83,9,2,17,0.00
2013-3-1,64.2,49.6,38.5,6.5,-3.2,-12.6,16,11,10,30.00,29.83,12,2,17,0.00
2013-3-2,51.3,41.3,32.4,-3.6,-11.1,-18.2,10,10,10,30.07,29.95,11,3,19,0.00
2013-3-3,55.4,44.6,32.4,-0.5,-8.6,-18.2,10,10,10,30.10,29.97,8,2,14,0.00
2013-3-4,67.8,53.5,32.9,9.2,-0.0,-16.5,22,11,10,30.01,29.81,13,4,27,0.00
2013-3-5,77.7,65.2,46.2,16.7,8.7,-7.3,16,11,10,30.00,29.76,10,3,19,0.00
2013-3-6,62.6,49.7,37.9,5.2,-4.6,-13.7,13,10,10,30.13,30.00,10,2,103,0.00
2013-3-7,68.7,49.5,35.4,9.9,-4.7,-15.7,13,10,10,30.19,30.05,9,1,13,0.00
2013-3-8,75.6,54.8,36.1,15.2,3.1,-8.5,27,13,10,30.15,30.02,6,1,11,0.00
2013-3-9,75.2,59.6,43.9,27.8,11.3,-6.3,28,16,10,30.05,29.86,11,3,20,0.00
2013-3-10,77.4,68.8,61.9,26.8,18.2,7.9,26,15,10,29.88,29.74,19,7,34,0.05
2013-3-11,69.3,57.9,43.5,40.8,15.1,-15.4,37,20,10,29.83,29.68,101,4,101,0.18
2013-3-12,68.2,52.4,38.5,11.6,1.9,-8.3,26,13,10,30.03,29.83,9,2,17,0.00
2013-3-13,68.7,53.5,38.3,11.9,1.5,-9.0,27,12,10,30.22,30.03,10,2,19,0.00
2013-3-14,68.2,51.5,37.4,9.4,-3.3,-14.3,10,10,10,30.29,30.13,10,1,15,0.00
2013-3-15,78.4,57.3,37.8,17.4,3.0,-11.9,21,11,10,30.15,29.99,11,2,19,0.00
2013-3-16,81.0,62.5,43.2,19.2,10.6,-2.0,27,14,10,29.98,29.82,14,2,24,0.01
2013-3-17,77.9,62.8,51.6,34.3,21.8,8.2,36,23,10,29.85,29.73,11,2,18,0.00
2013-3-18,84.4,72.0,63.5,44.7,29.5,14.0,41,23,10,29.75,29.61,13,4,20,0.00
2013-3-19,80.6,67.0,56.8,37.1,15.9,1.6,34,15,10,29.87,29.71,8,2,20,0.00
2013-3-20,68.0,58.3,44.1,9.4,2.0,-9.0,10,10,10,29.96,29.81,10,2,16,0.01
2013-3-21,69.3,52.8,38.8,10.4,-2.2,-13.0,10,10,10,29.92,29.73,8,1,14,0.00
2013-3-22,71.4,60.7,46.6,11.5,4.6,-4.9,17,10,10,29.76,29.69,14,2,23,0.01
2013-3-23,65.7,65.7,65.7,7.7,7.7,7.7,10,10,10,29.69,29.69,0,0,7,0.01
2013-3-24,65.7,65.7,65.7,7.7,7.7,7.7,10,10,10,29.69,29.69,0,0,7,0.01
2013-3-25,65.7,65.7,65.7,7.7,7.7,7.7,10,10,10,29.69,29.69,0,0,7,0.01
2013-3-26,65.7,57.6,37.6,7.7,1.4,-14.0,10,10,10,30.22,29.69,11,2,19,0.44
2013-3-27,65.5,47.3,30.0,7.5,-6.2,-19.9,17,10,10,30.29,30.12,8,1,13,0.00
2013-3-28,75.6,52.8,34.0,15.2,0.7,-13.4,26,12,10,30.21,30.08,11,2,16,0.00
2013-3-29,75.9,57.5,38.3,15.2,4.9,-10.4,26,12,10,30.18,30.05,14,2,18,0.00
2013-3-30,81.0,63.2,47.3,24.2,14.9,5.4,31,17,10,30.06,29.88,14,2,19,0.00
2013-3-31,85.5,66.5,53.4,37.6,23.8,11.5,40,22,10,29.91,29.72,12,2,21,0.27
2013-4-1,77.4,63.6,54.0,38.1,22.6,3.2,43,25,10,29.92,29.76,8,1,11,0.01
2013-4-2,83.7,65.9,49.5,31.1,16.6,5.6,36,17,10,29.97,29.84,13,2,17,0.00
2013-4-3,68.2,60.0,55.6,36.3,24.4,7.1,42,27,11,29.91,29.55,14,2,30,1.45
2013-4-4,74.5,60.3,54.5,28.7,15.9,5.0,35,19,10,29.80,29.69,8,2,14,0.00
2013-4-5,70.9,57.6,49.5,13.8,6.7,-2.9,20,13,10,29.96,29.80,10,3,18,0.00
2013-4-6,81.0,59.6,41.7,18.0,9.3,-1.4,29,14,10,30.01,29.92,12,2,18,0.00
2013-4-7,82.0,62.6,46.6,26.0,15.3,6.5,34,17,10,29.98,29.85,11,2,16,0.00
2013-4-8,84.0,69.4,51.6,45.8,25.6,14.7,43,23,10,29.90,29.81,14,4,24,0.01
2013-4-9,84.4,75.3,69.4,44.7,31.3,14.5,40,23,10,29.91,29.80,17,6,27,0.07
2013-4-10,84.0,74.6,66.0,47.1,30.4,15.9,45,23,10,29.86,29.71,16,5,24,0.01
2013-4-11,82.2,72.6,59.5,47.2,38.5,3.1,40,30,10,29.72,29.42,26,6,42,1.25
2013-4-12,77.7,63.7,52.3,33.9,14.1,0.5,37,16,10,29.81,29.64,100,3,100,0.00
2013-4-13,84.0,66.0,49.5,29.3,13.8,-3.7,27,14,10,29.89,29.73,24,2,100,0.00
2013-4-14,69.4,63.5,58.6,42.5,31.0,11.4,42,30,12,29.80,29.58,14,2,27,1.35
2013-4-15,81.3,71.9,65.1,50.6,39.4,17.3,49,33,10,29.87,29.65,8,2,13,0.00
2013-4-16,85.1,76.1,68.2,50.4,34.7,18.0,43,26,10,29.96,29.85,11,3,19,0.00
2013-4-17,86.4,74.7,67.1,49.7,31.2,13.0,46,24,10,29.95,29.84,12,3,19,0.00
2013-4-18,82.8,74.5,64.9,47.5,34.8,17.1,43,27,10,29.84,29.68,15,5,21,0.01
2013-4-19,76.6,57.0,44.2,45.9,24.4,7.4,36,29,16,30.02,29.64,13,3,24,1.50
2013-4-20,72.0,56.2,39.6,20.0,8.4,-3.7,33,17,10,30.11,29.94,8,1,14,0.01
2013-4-21,78.3,61.5,43.7,17.3,9.6,-1.3,26,14,10,30.06,29.93,12,1,18,0.00
2013-4-22,83.7,66.3,50.9,26.2,17.9,3.9,30,17,10,29.98,29.86,9,2,14,0.00
2013-4-23,81.5,68.9,56.7,38.0,24.0,11.8,39,21,10,29.95,29.86,13,3,19,0.00
2013-4-24,74.1,67.6,59.5,44.8,36.0,19.9,41,32,14,29.99,29.81,17,1,28,0.34
2013-4-25,79.0,64.6,55.8,36.8,18.4,3.0,37,20,10,30.13,29.99,7,2,15,0.00
2013-4-26,83.8,68.1,52.5,21.5,12.2,-0.1,19,11,10,30.14,30.03,10,2,14,0.00
2013-4-27,84.6,71.8,59.0,38.6,25.0,13.7,37,20,10,30.06,29.88,12,3,20,0.00
2013-4-28,83.1,72.5,66.7,50.4,30.5,12.3,45,25,10,29.91,29.78,11,1,17,0.00
2013-4-29,86.2,73.3,65.5,42.5,28.2,14.5,39,22,10,29.83,29.71,8,1,10,0.13
2013-4-30,82.8,71.2,63.0,47.2,32.1,15.4,42,27,10,29.78,29.70,10,2,17,1.69
2013-5-1,80.8,69.8,63.3,51.2,42.7,18.2,48,39,10,29.77,29.67,12,2,21,8.59
2013-5-2,75.0,67.5,63.1,45.8,39.5,14.5,47,38,11,29.81,29.69,7,1,14,1.89
2013-5-3,79.9,66.2,49.8,49.6,30.3,13.4,49,31,10,29.82,29.64,9,2,17,0.57
2013-5-4,72.0,58.0,44.2,20.4,7.3,-3.6,31,14,10,29.83,29.70,10,2,21,0.01
2013-5-5,72.5,60.3,49.3,29.4,9.0,-4.8,32,14,10,29.85,29.68,11,2,18,0.00
2013-5-6,77.0,61.3,45.0,20.2,9.9,-3.0,28,14,10,29.86,29.74,8,1,14,0.00
2013-5-7,81.9,67.1,51.8,30.6,16.5,7.2,34,16,10,29.88,29.80,6,1,11,0.00
2013-5-8,88.9,71.7,58.1,34.5,21.6,10.5,35,17,10,29.95,29.85,8,1,14,0.00
2013-5-9,85.8,71.6,58.3,37.4,22.5,10.7,32,18,10,29.98,29.88,11,2,17,0.00
2013-5-10,76.8,68.9,64.0,46.8,33.0,12.6,44,29,10,29.98,29.72,16,2,25,0.45
2013-5-11,80.1,69.5,62.1,48.6,32.9,15.6,48,30,10,29.91,29.77,6,0,11,0.26
2013-5-12,82.4,72.0,61.5,43.0,23.7,5.4,42,20,10,29.97,29.85,6,1,12,0.01
2013-5-13,82.8,67.9,51.4,20.6,13.4,1.6,23,13,10,30.12,29.96,7,1,11,0.00
2013-5-14,89.6,70.4,52.7,27.4,17.1,6.8,29,14,10,30.13,30.00,10,1,14,0.00
2013-5-15,88.5,72.2,55.9,30.8,19.3,8.1,31,15,10,30.06,29.88,10,2,15,0.00
2013-5-16,87.4,79.0,71.8,39.0,25.2,16.0,30,15,10,29.90,29.80,11,4,19,0.00
2013-5-17,88.5,79.1,68.0,45.7,31.7,17.8,38,20,10,29.90,29.81,12,4,21,0.00
2013-5-18,91.8,79.8,72.1,50.5,33.3,17.8,41,22,10,29.92,29.84,10,2,16,0.00
2013-5-19,86.4,77.1,68.4,49.6,34.2,19.7,41,25,10,29.88,29.81,8,2,13,0.00
2013-5-20,94.3,79.8,70.0,55.4,35.2,17.8,48,24,10,29.89,29.79,12,3,19,0.00
2013-5-21,90.0,78.2,67.1,49.6,31.3,17.0,42,21,10,29.83,29.71,11,3,18,0.00
2013-5-22,86.4,75.0,66.4,48.0,29.2,14.8,40,21,10,29.90,29.73,8,0,19,0.05
2013-5-23,95.0,80.1,64.9,48.8,30.2,17.8,41,19,10,29.89,29.78,8,1,11,0.00
2013-5-24,93.2,80.1,68.0,47.6,27.4,9.4,40,17,10,30.00,29.86,6,1,13,0.00
2013-5-25,92.5,75.7,60.6,28.1,15.6,3.8,15,10,10,30.08,29.97,9,1,13,0.00
2013-5-26,92.1,76.7,61.0,36.8,23.8,14.1,31,15,10,30.05,29.95,10,2,15,0.00
2013-5-27,88.7,77.9,65.7,45.5,28.1,13.7,36,18,10,30.00,29.90,14,3,21,0.00
2013-5-28,90.3,75.9,60.1,38.9,27.0,15.9,34,18,10,29.93,29.85,11,3,19,0.00
2013-5-29,87.8,78.1,68.5,48.8,31.4,18.2,41,21,10,29.89,29.83,15,3,26,0.00
2013-5-30,86.2,78.7,72.1,51.2,32.0,18.2,42,21,10,29.89,29.81,14,4,24,0.01
2013-5-31,88.3,79.4,73.0,47.4,33.1,18.8,37,21,10,29.87,29.80,14,4,21,0.00
2013-6-1,88.2,79.9,73.0,54.5,36.9,20.4,43,25,10,29.83,29.77,14,3,19,0.02
2013-6-2,101.1,81.2,70.9,50.7,36.4,18.8,46,24,10,29.84,29.69,11,2,18,0.11
2013-6-3,95.2,80.5,70.0,53.9,35.3,17.4,44,23,10,29.77,29.66,8,1,12,0.00
2013-6-4,97.7,82.8,71.6,51.9,34.8,20.3,43,21,10,29.78,29.71,11,2,17,0.00
2013-6-5,91.8,80.7,69.4,52.5,33.8,14.9,42,22,10,29.77,29.67,11,2,20,0.08
2013-6-6,95.4,77.5,65.7,46.7,32.9,16.5,43,23,10,29.70,29.56,8,1,18,0.04
2013-6-7,90.3,77.9,70.0,47.0,31.8,17.4,41,22,10,29.73,29.61,7,1,14,0.19
2013-6-8,94.8,80.4,69.6,48.2,31.3,19.9,40,20,10,29.87,29.71,11,2,17,0.13
2013-6-9,87.3,76.0,70.7,50.7,39.1,18.5,41,28,10,29.84,29.75,15,2,24,0.08
2013-6-10,87.8,77.3,70.5,54.5,42.1,21.0,47,32,10,29.88,29.79,8,1,14,0.94
2013-6-11,99.0,84.5,73.0,57.7,38.5,23.0,47,24,10,29.93,29.83,10,1,15,0.04
2013-6-12,100.8,85.4,72.9,50.1,34.6,19.9,38,19,10,29.92,29.83,8,1,13,0.01
2013-6-13,99.3,86.0,74.1,48.1,32.8,18.7,36,17,10,29.87,29.69,6,1,14,0.00
2013-6-14,97.0,84.9,75.6,51.0,31.2,15.2,37,16,10,29.78,29.67,6,1,11,0.08
2013-6-15,98.1,83.9,69.6,41.1,28.7,14.7,27,15,10,29.85,29.76,8,1,14,0.00
2013-6-16,95.2,84.0,73.9,51.5,36.3,21.3,37,21,10,29.89,29.80,7,1,12,0.17
2013-6-17,97.2,85.9,75.9,52.0,33.8,20.4,38,18,10,29.86,29.77,9,1,17,0.00
2013-6-18,97.0,86.5,75.6,47.1,31.6,18.1,32,15,10,29.85,29.71,13,1,20,0.84
2013-6-19,91.0,84.1,71.4,50.1,29.5,19.9,39,15,10,29.87,29.77,7,1,10,0.02
2013-6-20,96.8,80.3,72.3,50.0,38.4,18.0,39,25,10,29.93,29.84,15,1,22,0.01
2013-6-21,93.0,79.2,70.5,53.2,36.6,17.4,45,25,10,29.95,29.88,10,1,17,0.02
2013-6-22,94.3,81.8,72.1,53.5,35.5,20.8,45,23,10,29.95,29.84,7,1,11,0.00
2013-6-23,94.3,79.1,73.2,53.6,41.5,19.3,43,29,10,29.92,29.85,9,0,14,0.01
2013-6-24,92.5,80.6,73.6,56.4,41.4,22.3,45,30,10,30.01,29.88,7,1,17,0.00
2013-6-25,95.2,82.9,71.6,54.6,34.9,19.7,44,22,10,29.97,29.85,9,1,14,0.00
2013-6-26,95.2,83.7,73.2,52.3,34.8,21.4,41,20,10,29.91,29.80,9,1,16,0.00
2013-6-27,99.5,86.3,75.0,52.0,35.7,23.0,39,19,10,29.87,29.73,6,1,10,0.00
2013-6-28,99.9,88.1,78.8,55.2,37.1,22.2,41,19,10,29.76,29.58,7,1,12,0.00
2013-6-29,96.6,84.7,76.1,42.6,30.6,17.6,28,15,10,29.64,29.50,10,1,15,0.00
2013-6-30,95.7,83.1,72.3,47.1,30.6,15.9,38,17,10,29.62,29.53,5,0,10,0.00
2013-7-1,94.1,81.6,69.8,37.8,25.8,14.0,31,14,10,29.74,29.60,7,1,12,0.00
2013-7-2,97.5,81.2,67.6,41.0,27.8,16.3,33,16,10,29.84,29.73,4,0,6,0.00
2013-7-3,91.8,77.7,73.8,48.1,38.5,16.7,40,27,10,29.87,29.77,6,1,11,0.00
2013-7-4,95.7,80.5,71.6,54.0,37.6,20.3,46,26,10,29.84,29.73,12,2,21,0.00
2013-7-5,79.3,76.0,73.9,52.7,49.2,37.2,43,39,22,29.91,29.81,11,2,16,0.00
2013-7-6,80.4,75.7,72.5,55.8,48.2,35.9,50,39,21,29.90,29.82,5,1,9,0.00
2013-7-7,84.0,77.3,74.5,57.9,51.6,24.8,49,41,12,29.96,29.84,12,0,18,0.00
2013-7-8,89.6,77.3,73.9,58.2,48.3,20.8,49,38,10,30.01,29.91,11,0,17,0.00
2013-7-9,96.1,82.8,71.1,59.0,36.8,20.0,52,24,10,30.03,29.91,8,1,13,0.00
2013-7-10,96.3,81.3,73.9,52.4,40.3,20.8,41,27,10,29.95,29.80,8,0,14,0.00
2013-7-11,85.8,77.8,73.9,57.3,45.8,19.7,47,34,10,29.85,29.70,12,1,20,0.00
2013-7-12,96.6,79.2,70.9,53.2,38.7,12.5,46,27,10,29.81,29.67,13,1,21,0.11
2013-7-13,96.4,79.0,69.3,52.8,36.5,19.1,46,25,10,29.82,29.70,8,1,14,0.00
2013-7-14,94.5,77.6,71.8,46.8,24.4,12.5,39,16,10,29.88,29.74,5,2,122,0.80
2013-7-15,92.5,81.0,72.0,54.4,35.3,21.8,43,22,10,29.95,29.85,11,1,18,0.00
2013-7-16,91.4,80.7,73.4,49.4,35.8,20.7,41,23,10,30.03,29.92,15,2,27,0.00
2013-7-17,96.1,82.9,72.7,52.5,35.8,20.8,44,22,10,30.11,29.93,8,1,14,0.00
2013-7-18,96.8,82.8,73.0,51.3,35.4,21.5,40,21,10,29.98,29.83,7,1,11,0.00
2013-7-19,92.7,79.8,72.5,52.3,38.1,20.4,41,26,10,29.91,29.85,7,1,11,0.00
2013-9-11,95.2,82.1,71.8,46.4,32.5,16.5,39,20,10,29.96,29.85,8,1,12,0.00
2013-9-12,96.4,82.1,70.9,43.2,31.3,18.8,36,18,10,29.88,29.74,4,1,6,0.00
2013-9-13,96.8,83.0,70.3,43.6,31.7,19.5,37,18,10,29.77,29.63,3,1,7,0.00
2013-9-14,90.3,80.3,72.9,38.4,26.3,16.3,26,15,10,29.83,29.69,3,1,8,0.00
2013-9-15,96.4,80.8,68.2,40.0,24.0,9.5,28,13,10,29.90,29.82,4,1,7,0.00
2013-9-16,96.3,81.8,71.1,49.4,36.3,18.4,40,23,10,29.92,29.81,4,1,7,1.19
2013-9-17,95.2,78.8,71.4,49.3,36.3,18.1,42,24,10,29.91,29.80,10,1,16,0.12
2013-9-18,90.7,80.5,73.8,51.0,33.9,18.4,41,22,10,29.92,29.83,6,1,12,0.01
2013-9-19,91.6,81.1,73.8,49.2,33.4,18.1,39,21,10,29.90,29.81,11,2,16,0.00
2013-9-20,92.1,80.3,72.1,53.0,37.9,21.8,43,25,10,29.85,29.67,11,2,20,0.06
2013-9-21,80.8,77.4,73.0,54.9,49.4,39.1,45,38,23,29.67,29.54,4,0,8,0.33
2013-9-22,84.6,76.9,69.4,44.5,19.3,12.2,39,12,10,29.64,29.57,5,1,11,0.02
2013-9-23,91.0,77.6,66.7,48.0,30.4,15.9,36,20,10,29.71,29.62,5,0,9,0.01
2013-9-24,89.4,78.6,71.8,55.2,43.1,20.3,46,32,10,29.72,29.59,10,2,16,0.76
2013-9-25,90.0,78.1,71.8,54.4,35.2,15.6,49,26,10,29.66,29.57,5,1,9,0.00
2013-9-26,92.7,79.3,69.1,48.6,30.4,14.5,42,20,10,29.78,29.64,8,0,12,0.00
2013-9-27,88.7,77.2,67.8,41.2,28.0,13.4,33,18,10,29.88,29.77,7,1,12,0.00
2013-9-28,89.6,74.9,63.0,37.0,25.3,12.7,35,18,10,29.92,29.83,6,0,9,0.00
2013-9-29,88.0,74.6,63.7,35.3,25.0,12.7,33,18,10,29.89,29.78,5,0,8,0.01
2013-9-30,86.7,75.0,69.6,44.9,33.0,16.9,37,24,10,29.83,29.75,5,0,8,0.09
2013-10-1,91.0,78.4,68.7,50.9,31.4,16.9,44,21,10,29.88,29.80,8,1,11,0.00
2013-10-2,85.1,76.1,72.5,50.6,40.0,19.3,42,30,10,29.90,29.81,6,0,11,0.17
2013-10-3,90.5,77.7,71.6,55.1,40.7,18.5,47,30,10,29.88,29.80,12,1,18,0.07
2013-10-4,91.8,79.6,72.0,57.1,38.2,19.9,49,27,10,29.88,29.81,11,1,19,0.20
2013-10-5,90.3,79.4,73.6,61.6,37.8,18.8,52,27,10,29.86,29.75,11,2,17,0.02
2013-10-6,83.5,75.0,68.5,54.3,42.2,9.9,46,34,10,29.77,29.61,7,1,15,0.63
2013-10-7,78.1,68.7,58.8,17.1,10.0,2.4,10,10,10,29.85,29.71,9,2,17,0.00
2013-10-8,80.4,65.7,52.3,28.3,16.5,2.4,34,16,10,29.86,29.79,6,1,10,0.00
2013-10-9,84.7,71.6,60.3,42.6,25.3,13.2,40,20,10,29.93,29.83,6,1,13,0.00
2013-10-10,86.4,73.3,66.2,42.8,29.5,14.4,40,23,10,29.96,29.83,5,1,9,0.00
2013-10-11,89.1,73.8,63.1,48.5,28.5,14.5,43,22,10,29.90,29.80,8,1,12,0.00
2013-10-12,88.9,75.0,63.9,47.3,28.4,13.4,40,21,10,29.93,29.83,7,0,10,0.00
2013-10-13,90.3,76.4,67.1,50.4,29.1,12.7,43,21,10,30.00,29.88,6,0,9,0.00
2013-10-14,83.1,76.5,64.2,42.8,26.2,14.3,40,19,10,29.95,29.91,4,1,7,0.00
2013-10-15,83.1,83.1,83.1,21.0,21.0,21.0,10,10,10,29.94,29.94,1,1,4,0.00
2013-10-16,83.1,83.1,83.1,21.0,21.0,21.0,10,10,10,29.94,29.94,1,1,4,0.00
2013-10-17,83.1,83.1,83.1,21.0,21.0,21.0,10,10,10,29.94,29.94,1,1,4,0.00
2013-10-18,83.1,83.1,83.1,21.0,21.0,21.0,10,10,10,29.94,29.94,1,1,4,0.00
2013-10-19,83.1,83.1,83.1,21.0,21.0,21.0,10,10,10,29.94,29.94,1,1,4,0.00
2013-10-20,83.1,83.1,83.1,21.0,21.0,21.0,10,10,10,29.94,29.94,1,1,4,0.00
2013-10-21,83.1,83.1,83.1,21.0,21.0,21.0,10,10,10,29.94,29.94,1,1,4,0.00
2013-10-22,83.1,83.1,83.1,21.0,21.0,21.0,10,10,10,29.94,29.94,1,1,4,0.00
2013-10-23,83.1,83.1,83.1,21.0,21.0,21.0,10,10,10,29.94,29.94,1,1,4,0.00
2013-10-24,83.1,83.1,83.1,21.0,21.0,21.0,10,10,10,29.94,29.94,1,1,4,0.00
2013-10-25,83.1,83.1,83.1,21.0,21.0,21.0,10,10,10,29.94,29.94,1,1,4,0.00
2013-10-26,83.1,83.1,83.1,21.0,21.0,21.0,10,10,10,29.94,29.94,1,1,4,0.00
2013-10-27,83.1,83.1,83.1,21.0,21.0,21.0,10,10,10,29.94,29.94,1,1,4,0.00
2013-10-28,83.1,83.1,83.1,21.0,21.0,21.0,10,10,10,29.94,29.94,1,1,4,0.00
2013-10-29,83.1,83.1,83.1,21.0,21.0,21.0,10,10,10,29.94,29.94,1,1,4,0.00
2013-10-30,83.1,83.1,83.1,21.0,21.0,21.0,10,10,10,29.94,29.94,1,1,4,0.00
2013-10-31,83.1,83.1,83.1,21.0,21.0,21.0,10,10,10,29.94,29.94,1,1,4,0.00
2013-11-1,83.1,83.1,83.1,21.0,21.0,21.0,10,10,10,29.94,29.94,1,1,4,0.00
2013-11-2,83.1,83.1,83.1,21.0,21.0,21.0,10,10,10,29.94,29.94,1,1,4,0.00
2013-11-3,83.1,83.1,83.1,21.0,21.0,21.0,10,10,10,29.94,29.94,1,1,4,0.00
2013-11-4,83.1,83.1,83.1,21.0,21.0,21.0,10,10,10,29.94,29.94,1,1,4,0.00
2013-11-5,83.1,83.1,83.1,21.0,21.0,21.0,10,10,10,29.94,29.94,1,1,4,0.00
2013-11-6,83.1,83.1,83.1,21.0,21.0,21.0,10,10,10,29.94,29.94,1,1,4,0.00
2013-11-7,83.1,83.1,83.1,21.0,21.0,21.0,10,10,10,29.94,29.94,1,1,4,0.00
2013-11-8,67.5,53.0,42.6,8.9,-2.3,-10.3,10,10,10,30.16,30.01,9,2,16,0.00
2013-11-9,76.8,58.7,42.1,17.9,7.1,-10.3,23,13,10,30.09,30.00,3,0,6,0.00
2013-11-10,77.2,63.1,52.5,20.3,12.9,2.8,25,15,10,30.10,30.00,4,1,8,0.00
2013-11-11,80.1,61.5,46.0,24.3,12.0,-0.8,32,16,10,30.08,29.96,4,1,7,0.00
2013-11-12,74.3,56.6,43.0,24.8,7.7,-10.0,34,16,10,30.28,30.00,9,3,17,0.01
2013-11-13,57.0,45.5,32.2,1.0,-7.9,-18.2,10,10,10,30.36,30.24,10,2,21,0.00
2013-11-14,68.2,52.4,32.0,9.6,-2.6,-18.3,10,10,10,30.26,29.98,5,1,11,0.00
2013-11-15,72.7,62.4,57.0,37.8,23.3,1.0,40,24,10,29.98,29.83,9,1,13,0.43
2013-11-16,73.2,68.4,62.4,49.0,39.5,27.1,50,36,18,29.93,29.82,8,2,13,0.01
2013-11-17,83.1,74.5,69.6,56.2,42.6,17.4,52,35,10,29.83,29.74,10,2,17,0.11
2013-11-18,74.3,67.9,56.3,53.7,29.1,0.3,50,28,10,29.92,29.77,9,1,20,0.31
2013-11-19,65.5,54.5,43.2,7.5,-0.8,-9.7,13,10,10,29.99,29.85,8,1,14,0.00
2013-11-20,74.5,56.5,39.9,24.7,5.2,-11.9,30,13,10,29.99,29.87,6,1,11,0.00
2013-11-21,70.0,62.8,55.0,30.1,20.0,6.7,32,21,10,30.08,29.98,6,1,10,0.00
2013-11-22,79.9,69.3,60.6,44.1,32.0,13.6,42,28,10,30.05,29.96,8,1,11,0.15
2013-11-23,66.7,60.7,50.2,42.9,20.9,-4.4,42,25,10,30.13,29.99,9,3,17,0.00
2013-11-24,55.2,47.2,40.3,-0.4,-6.6,-11.9,10,10,10,30.22,30.12,9,3,19,0.00
2013-11-25,62.8,50.4,39.0,38.6,1.1,-12.9,41,14,10,30.15,29.70,6,1,14,0.24
2013-11-26,68.9,53.1,44.2,47.7,20.8,-1.1,47,30,10,29.78,29.54,11,4,23,1.37
2013-11-27,50.0,41.2,29.8,16.3,-7.9,-20.0,32,13,10,30.24,29.77,11,3,24,0.06
2013-11-28,50.9,37.0,25.5,-3.7,-13.6,-22.3,15,11,10,30.34,30.21,6,1,10,0.00
2013-11-29,61.0,40.8,27.1,4.1,-9.0,-18.9,22,12,10,30.38,30.25,6,1,11,0.00
2013-11-30,70.3,48.4,30.7,11.2,-4.1,-19.3,16,11,10,30.29,30.09,4,0,7,0.00
2013-12-1,74.1,54.0,36.5,19.6,5.4,-3.8,31,15,10,30.12,29.85,4,0,11,0.00
2013-12-2,76.5,60.8,46.2,30.0,13.2,1.6,35,17,10,29.85,29.63,7,1,13,0.00
2013-12-3,77.4,68.5,61.3,43.7,27.6,9.9,43,24,10,29.69,29.59,12,2,21,0.04
2013-12-4,80.2,73.0,67.8,52.7,38.8,16.6,48,33,10,29.81,29.68,12,3,18,0.01
2013-12-5,80.4,75.5,73.2,55.5,45.8,20.9,51,37,11,29.86,29.78,14,5,22,0.08
2013-12-6,82.4,72.2,51.3,49.1,35.2,7.1,41,28,10,30.00,29.80,13,5,26,0.39
2013-12-7,51.3,43.9,42.3,21.7,12.8,6.9,33,28,22,30.14,29.99,8,3,15,0.27
2013-12-8,63.3,53.4,43.5,34.1,26.4,16.3,41,35,24,30.06,29.87,4,1,8,0.00
2013-12-9,68.5,61.2,56.7,44.9,25.1,7.0,47,29,10,29.97,29.85,7,1,11,0.05
2013-12-10,59.0,46.1,36.3,27.3,2.7,-14.1,32,18,10,30.19,29.86,11,3,20,0.17
2013-12-11,62.8,48.9,34.2,5.4,-0.4,-11.8,24,14,10,30.24,30.13,4,1,9,0.00
2013-12-12,57.4,46.8,33.6,1.3,-6.9,-17.1,10,10,10,30.34,30.22,8,2,16,0.00
2013-12-13,63.7,48.0,30.6,6.1,-6.0,-19.4,10,10,10,30.22,29.84,8,1,13,0.00
2013-12-14,79.2,64.5,51.4,40.1,18.2,-0.9,36,18,10,29.85,29.64,10,2,17,0.12
2013-12-15,51.3,43.9,32.5,9.2,-8.3,-17.2,18,10,10,30.15,29.84,11,3,20,0.00
2013-12-16,61.2,43.1,30.2,6.0,-4.8,-16.0,27,14,10,30.19,30.07,5,0,8,0.00
2013-12-17,67.8,46.7,30.6,9.2,-4.8,-17.3,23,11,10,30.19,30.05,4,0,9,0.00
2013-12-18,69.4,48.6,33.3,10.5,-2.8,-15.0,25,12,10,30.21,30.08,4,0,8,0.00
2013-12-19,73.9,55.8,36.5,27.8,7.5,-14.4,30,15,10,30.08,29.90,11,2,19,0.00
2013-12-20,77.2,67.3,55.9,43.9,29.2,12.7,43,27,10,29.95,29.81,12,3,22,0.01
2013-12-21,77.5,74.2,71.8,48.3,42.4,30.4,42,33,19,29.81,29.66,16,8,27,0.02
2013-12-22,75.4,61.4,54.9,49.3,35.0,9.0,42,37,10,29.97,29.66,14,3,27,2.53
2013-12-23,55.9,48.3,38.5,33.0,6.9,-13.3,42,21,10,30.27,29.92,10,3,18,0.06
2013-12-24,52.9,40.1,30.4,-2.2,-12.0,-19.7,10,10,10,30.35,30.21,9,2,15,0.00
2013-12-25,51.8,40.2,27.9,-3.0,-10.8,-20.4,15,11,10,30.24,30.13,4,1,8,0.00
2013-12-26,56.1,44.3,34.9,0.3,-8.8,-16.1,10,10,10,30.21,30.11,7,1,11,0.00
2013-12-27,61.9,50.7,39.9,4.8,-3.9,-12.2,10,10,10,30.23,30.10,7,1,11,0.00
2013-12-28,52.9,48.7,47.1,22.2,15.3,-6.1,35,28,10,30.10,29.76,7,1,14,1.67
2013-12-29,59.5,50.0,41.4,26.4,12.3,-5.4,39,25,10,29.96,29.75,7,1,11,0.02
2013-12-30,59.4,48.6,38.3,25.5,10.9,-0.4,35,23,10,30.15,29.94,4,0,8,0.00
2013-12-31,50.4,46.2,43.7,15.9,0.9,-9.0,25,16,10,30.26,30.12,6,1,13,0.04
2014-1-1,62.8,52.4,43.7,28.6,17.9,4.6,36,27,10,30.18,29.88,2,0,5,0.08
2014-1-2,60.8,52.1,35.6,37.8,12.0,-15.5,46,24,10,30.17,29.74,13,3,27,0.32